Time;durP1;ratioP1;P1;durP2;ratioP2;P2;SDS_P1;SDS_P2;PMS_P1;PMS_P2;Temp;Humidity;BMP_temperature;BMP_pressure;BME280_temperature;BME280_humidity;BME280_pressure;Samples;Min_cycle;Max_cycle;Signal;HPM_P1;HPM_P2
2022/08/17 00:01:36;;;;;;;1.95;1.70;;;;;;;;;;10487549;28;20033;-58
2022/08/17 00:06:37;;;;;;;2.00;1.38;;;;;;;;;;10481071;28;20048;-57
2022/08/17 00:11:42;;;;;;;4.38;1.75;;;;;;;;;;10487418;28;20032;-57
2022/08/17 00:17:02;;;;;;;4.47;1.83;;;;;;;;;;10499653;28;20028;-58
2022/08/17 00:22:05;;;;;;;1.70;1.60;;;;;;;;;;10493732;28;20078;-58
2022/08/17 00:27:06;;;;;;;1.70;1.60;;;;;;;;;;10497348;28;20040;-58
2022/08/17 00:32:07;;;;;;;2.15;1.73;;;;;;;;;;10494270;28;20244;-57
2022/08/17 00:37:08;;;;;;;2.88;2.00;;;;;;;;;;10500576;28;20295;-57
2022/08/17 00:42:17;;;;;;;3.08;1.95;;;;;;;;;;10480814;28;20027;-57
2022/08/17 00:47:18;;;;;;;1.70;1.60;;;;;;;;;;10498457;28;20483;-57
2022/08/17 00:52:21;;;;;;;1.58;1.48;;;;;;;;;;10494218;28;20039;-57
2022/08/17 00:57:31;;;;;;;1.88;1.52;;;;;;;;;;10488321;28;20024;-58
2022/08/17 01:02:38;;;;;;;2.00;1.83;;;;;;;;;;10482912;28;20039;-58
2022/08/17 01:07:39;;;;;;;2.25;1.85;;;;;;;;;;10480893;28;20059;-57
2022/08/17 01:12:40;;;;;;;3.83;1.55;;;;;;;;;;10501062;28;20488;-57
2022/08/17 01:17:42;;;;;;;1.83;1.60;;;;;;;;;;10500680;28;20028;-58
2022/08/17 01:22:42;;;;;;;1.88;1.52;;;;;;;;;;10493129;28;20032;-58
2022/08/17 01:27:43;;;;;;;1.88;1.75;;;;;;;;;;10482135;28;20060;-58
2022/08/17 01:32:44;;;;;;;1.80;1.67;;;;;;;;;;10477962;28;20033;-57
2022/08/17 01:37:46;;;;;;;1.80;1.60;;;;;;;;;;10489845;28;20060;-58
2022/08/17 01:43:06;;;;;;;2.38;1.80;;;;;;;;;;10494572;28;20515;-56
2022/08/17 01:48:06;;;;;;;1.52;1.42;;;;;;;;;;10469858;28;20091;-57
2022/08/17 01:53:19;;;;;;;1.85;1.70;;;;;;;;;;10485570;28;20484;-57
2022/08/17 01:58:20;;;;;;;2.22;2.00;;;;;;;;;;10463449;28;20174;-57
2022/08/17 02:03:23;;;;;;;2.33;1.60;;;;;;;;;;10485237;28;20033;-57
2022/08/17 02:08:24;;;;;;;1.50;1.40;;;;;;;;;;10486846;28;20047;-57
2022/08/17 02:13:28;;;;;;;2.45;1.60;;;;;;;;;;10483149;28;20035;-58
2022/08/17 02:18:29;;;;;;;3.60;1.60;;;;;;;;;;10487404;28;20029;-58
2022/08/17 02:23:33;;;;;;;2.17;1.88;;;;;;;;;;10467939;28;20455;-57
2022/08/17 02:28:34;;;;;;;2.67;1.58;;;;;;;;;;10492258;28;20036;-58
2022/08/17 02:33:36;;;;;;;2.22;1.83;;;;;;;;;;10483071;28;20028;-58
2022/08/17 02:38:37;;;;;;;1.85;1.52;;;;;;;;;;10491610;28;20199;-58
2022/08/17 02:43:38;;;;;;;1.88;1.60;;;;;;;;;;10477444;28;20387;-57
2022/08/17 02:48:39;;;;;;;2.22;1.90;;;;;;;;;;10475388;28;20032;-57
2022/08/17 02:53:39;;;;;;;2.00;1.70;;;;;;;;;;10488166;28;20090;-58
2022/08/17 02:58:40;;;;;;;2.15;1.40;;;;;;;;;;10483834;28;20086;-58
2022/08/17 03:03:41;;;;;;;3.05;1.75;;;;;;;;;;10486403;28;20036;-56
2022/08/17 03:08:41;;;;;;;1.90;1.60;;;;;;;;;;10471962;28;20472;-56
2022/08/17 03:13:42;;;;;;;1.83;1.40;;;;;;;;;;10467502;28;20024;-56
2022/08/17 03:18:42;;;;;;;1.85;1.70;;;;;;;;;;10476131;28;20033;-57
2022/08/17 03:23:43;;;;;;;2.55;1.70;;;;;;;;;;10466499;28;20032;-56
2022/08/17 03:28:44;;;;;;;2.00;1.73;;;;;;;;;;10478849;28;20029;-57
2022/08/17 03:33:44;;;;;;;2.80;1.80;;;;;;;;;;10473052;28;20183;-56
2022/08/17 03:38:45;;;;;;;1.90;1.70;;;;;;;;;;10490338;28;20032;-57
2022/08/17 03:43:45;;;;;;;1.77;1.67;;;;;;;;;;10459661;28;20029;-56
2022/08/17 03:59:27;;;;;;;3.88;1.45;;;;;;;;;;10462905;28;20071;-55
2022/08/17 04:04:28;;;;;;;1.85;1.52;;;;;;;;;;10475704;28;20522;-56
2022/08/17 04:09:28;;;;;;;2.17;1.70;;;;;;;;;;10475290;28;20028;-58
2022/08/17 04:14:37;;;;;;;2.05;1.73;;;;;;;;;;10474503;28;20385;-56
2022/08/17 04:19:37;;;;;;;3.10;1.63;;;;;;;;;;10487552;28;20332;-55
2022/08/17 04:24:38;;;;;;;1.40;1.30;;;;;;;;;;10473291;28;20264;-57
2022/08/17 04:29:38;;;;;;;1.95;1.70;;;;;;;;;;10473320;28;20114;-55
2022/08/17 04:34:39;;;;;;;1.67;1.58;;;;;;;;;;10486499;28;20040;-57
2022/08/17 04:42:05;;;;;;;1.63;1.25;;;;;;;;;;10479309;28;20028;-55
2022/08/17 04:45:03;;;;;;;1.80;1.65;;;;;;;;;;10476237;28;20423;-56
2022/08/17 04:50:04;;;;;;;2.13;1.70;;;;;;;;;;10486609;28;20252;-58
2022/08/17 04:55:05;;;;;;;1.45;1.35;;;;;;;;;;10489190;28;20025;-57
2022/08/17 05:00:09;;;;;;;8.55;2.08;;;;;;;;;;10492144;28;20472;-56
2022/08/17 05:05:09;;;;;;;3.00;1.50;;;;;;;;;;10486518;28;20056;-57
2022/08/17 05:10:10;;;;;;;3.67;1.60;;;;;;;;;;10456863;28;20028;-54
2022/08/17 05:15:15;;;;;;;2.40;1.83;;;;;;;;;;10483547;28;20472;-56
2022/08/17 05:20:16;;;;;;;1.88;1.60;;;;;;;;;;10467506;28;20040;-56
2022/08/17 05:25:24;;;;;;;1.70;1.55;;;;;;;;;;10479790;28;20033;-55
2022/08/17 05:30:25;;;;;;;1.80;1.70;;;;;;;;;;10475939;28;20021;-55
2022/08/17 05:35:30;;;;;;;1.50;1.40;;;;;;;;;;10479012;28;20357;-56
2022/08/17 05:40:30;;;;;;;2.67;1.58;;;;;;;;;;10488666;28;20563;-56
2022/08/17 05:45:32;;;;;;;3.33;1.65;;;;;;;;;;10474603;28;20032;-57
2022/08/17 05:50:52;;;;;;;7.15;1.40;;;;;;;;;;10474498;28;20083;-56
2022/08/17 05:56:02;;;;;;;2.78;1.80;;;;;;;;;;10468030;28;20024;-56
2022/08/17 06:01:23;;;;;;;3.75;1.90;;;;;;;;;;10488703;28;20029;-56
2022/08/17 06:06:40;;;;;;;4.43;1.77;;;;;;;;;;10463941;28;20044;-56
2022/08/17 06:11:51;;;;;;;1.87;1.60;;;;;;;;;;10491420;28;20503;-55
2022/08/17 06:17:03;;;;;;;1.95;1.63;;;;;;;;;;10462043;28;20025;-56
2022/08/17 06:22:05;;;;;;;4.53;2.00;;;;;;;;;;10459307;28;20496;-57
2022/08/17 06:27:15;;;;;;;2.30;2.10;;;;;;;;;;10455864;28;20033;-56
2022/08/17 06:32:16;;;;;;;3.00;2.20;;;;;;;;;;10452920;28;20165;-56
2022/08/17 06:38:09;;;;;;;3.28;2.30;;;;;;;;;;10485217;28;20024;-56
2022/08/17 06:43:30;;;;;;;2.70;2.03;;;;;;;;;;10469286;28;20032;-55
2022/08/17 06:48:47;;;;;;;5.03;2.13;;;;;;;;;;10477052;28;20036;-56
2022/08/17 06:54:01;;;;;;;6.17;2.77;;;;;;;;;;10491260;28;20032;-55
2022/08/17 06:59:06;;;;;;;4.45;2.45;;;;;;;;;;10468700;28;20043;-56
2022/08/17 07:04:18;;;;;;;8.32;2.50;;;;;;;;;;10482035;28;20040;-58
2022/08/17 07:09:32;;;;;;;3.88;2.22;;;;;;;;;;10471396;28;20024;-58
2022/08/17 07:14:51;;;;;;;5.13;2.35;;;;;;;;;;10481634;28;20040;-58
2022/08/17 07:20:03;;;;;;;6.70;2.50;;;;;;;;;;10483072;28;20119;-58
2022/08/17 07:25:09;;;;;;;14.57;3.03;;;;;;;;;;10457274;28;20068;-51
2022/08/17 07:30:24;;;;;;;8.23;2.60;;;;;;;;;;10489891;28;20066;-55
2022/08/17 07:35:28;;;;;;;8.30;3.20;;;;;;;;;;10477526;28;20119;-58
2022/08/17 07:40:44;;;;;;;10.05;2.88;;;;;;;;;;10482633;28;20472;-56
2022/08/17 07:51:42;;;;;;;5.45;2.50;;;;;;;;;;10484824;28;20056;-55
2022/08/17 07:56:48;;;;;;;3.28;2.55;;;;;;;;;;10485767;28;20031;-58
2022/08/17 08:01:55;;;;;;;5.35;2.92;;;;;;;;;;10481904;28;20031;-56
2022/08/17 08:07:01;;;;;;;6.45;3.15;;;;;;;;;;10482832;28;20095;-56
2022/08/17 08:12:41;;;;;;;5.50;2.80;;;;;;;;;;10485726;28;20637;-54
2022/08/17 08:17:52;;;;;;;4.28;2.60;;;;;;;;;;10484653;28;20035;-56
2022/08/17 08:22:59;;;;;;;5.22;2.60;;;;;;;;;;10483447;28;20024;-55
2022/08/17 08:28:26;;;;;;;3.53;2.40;;;;;;;;;;10483238;28;20063;-54
2022/08/17 08:33:42;;;;;;;9.27;2.72;;;;;;;;;;10477791;28;20074;-57
2022/08/17 08:39:30;;;;;;;6.35;2.95;;;;;;;;;;10495196;28;20110;-56
2022/08/17 08:44:52;;;;;;;5.28;3.08;;;;;;;;;;10331859;28;20050;-57
2022/08/17 08:50:17;;;;;;;5.28;2.75;;;;;;;;;;10360700;28;20042;-55
2022/08/17 08:55:50;;;;;;;6.45;2.85;;;;;;;;;;10361708;28;20068;-54
2022/08/17 09:00:56;;;;;;;3.15;2.60;;;;;;;;;;10338384;28;20041;-55
2022/08/17 09:06:16;;;;;;;6.85;2.70;;;;;;;;;;10345154;28;20064;-54
2022/08/17 09:11:42;;;;;;;4.78;2.75;;;;;;;;;;10346023;28;20121;-58
2022/08/17 09:17:01;;;;;;;5.20;2.65;;;;;;;;;;10411237;28;20388;-57
2022/08/17 09:22:10;;;;;;;3.80;2.70;;;;;;;;;;10478033;28;20024;-56
2022/08/17 09:27:22;;;;;;;7.18;2.80;;;;;;;;;;10494392;28;20232;-53
2022/08/17 09:32:42;;;;;;;8.20;3.28;;;;;;;;;;10475940;28;20024;-56
2022/08/17 09:38:01;;;;;;;6.05;2.75;;;;;;;;;;10471908;28;20036;-54
2022/08/17 09:43:13;;;;;;;7.78;2.53;;;;;;;;;;10473303;28;20035;-54
2022/08/17 09:48:31;;;;;;;4.25;2.50;;;;;;;;;;10476460;28;20105;-56
2022/08/17 09:53:36;;;;;;;5.50;2.90;;;;;;;;;;10472003;28;20098;-53
2022/08/17 09:59:23;;;;;;;4.68;2.97;;;;;;;;;;10476009;28;20115;-55
2022/08/17 10:04:49;;;;;;;6.85;3.03;;;;;;;;;;10480889;28;20071;-56
2022/08/17 10:10:19;;;;;;;6.80;2.88;;;;;;;;;;10491848;28;20040;-55
2022/08/17 10:15:55;;;;;;;6.00;2.85;;;;;;;;;;10468724;28;20063;-55
2022/08/17 10:26:30;;;;;;;5.53;2.88;;;;;;;;;;10492215;28;20032;-58
2022/08/17 10:31:59;;;;;;;7.43;3.25;;;;;;;;;;10492109;28;20119;-56
2022/08/17 10:37:24;;;;;;;5.30;2.80;;;;;;;;;;10485413;28;20036;-55
2022/08/17 10:42:44;;;;;;;7.38;3.05;;;;;;;;;;10491007;28;20392;-55
2022/08/17 10:48:04;;;;;;;9.10;2.88;;;;;;;;;;10491067;28;20060;-55
2022/08/17 10:53:05;;;;;;;4.78;2.65;;;;;;;;;;10490010;28;20039;-52
2022/08/17 10:58:37;;;;;;;5.28;3.00;;;;;;;;;;10461320;28;20025;-55
2022/08/17 11:04:10;;;;;;;5.60;2.55;;;;;;;;;;10463700;28;20033;-56
2022/08/17 11:10:03;;;;;;;4.45;2.60;;;;;;;;;;10479271;28;20039;-55
2022/08/17 11:16:06;;;;;;;9.68;2.70;;;;;;;;;;10489640;28;20032;-52
2022/08/17 11:21:33;;;;;;;4.88;2.70;;;;;;;;;;10482843;28;20501;-54
2022/08/17 11:26:37;;;;;;;3.67;2.35;;;;;;;;;;10481275;28;20066;-56
2022/08/17 11:31:45;;;;;;;5.35;2.45;;;;;;;;;;10479315;28;20049;-57
2022/08/17 11:37:04;;;;;;;;;;;;;;;;;;10467894;28;20126;-58
2022/08/17 11:42:52;;;;;;;4.45;2.55;;;;;;;;;;10477738;28;19932;-55
2022/08/17 11:53:38;;;;;;;5.72;3.00;;;;;;;;;;10479600;28;20113;-56
2022/08/17 11:58:43;;;;;;;7.63;3.13;;;;;;;;;;10476153;28;20037;-54
2022/08/17 12:03:47;;;;;;;6.10;3.15;;;;;;;;;;10477933;28;20052;-50
2022/08/17 12:08:57;;;;;;;8.07;3.60;;;;;;;;;;10482767;28;20040;-53
2022/08/17 12:13:59;;;;;;;7.57;3.30;;;;;;;;;;10486193;28;20025;-50
2022/08/17 12:19:01;;;;;;;8.70;3.10;;;;;;;;;;10462476;28;20037;-52
2022/08/17 12:24:50;;;;;;;12.23;3.70;;;;;;;;;;10466439;28;20028;-53
2022/08/17 12:29:53;;;;;;;9.48;3.30;;;;;;;;;;10456666;28;20328;-56
2022/08/17 12:34:54;;;;;;;10.65;3.45;;;;;;;;;;10450924;28;20032;-55
2022/08/17 12:40:18;;;;;;;9.45;4.07;;;;;;;;;;10449303;28;20032;-56
2022/08/17 12:45:25;;;;;;;10.02;3.63;;;;;;;;;;10458955;28;20237;-52
2022/08/17 12:50:26;;;;;;;5.20;3.42;;;;;;;;;;10475281;28;20043;-53
2022/08/17 12:55:27;;;;;;;8.98;3.38;;;;;;;;;;10487379;28;20031;-56
2022/08/17 13:00:41;;;;;;;7.28;3.65;;;;;;;;;;10452797;28;20076;-55
2022/08/17 13:05:56;;;;;;;6.22;3.45;;;;;;;;;;10460166;28;20271;-56
2022/08/17 13:11:08;;;;;;;6.25;3.38;;;;;;;;;;10474977;28;20059;-53
2022/08/17 13:16:13;;;;;;;6.13;3.40;;;;;;;;;;10476036;28;20020;-56
2022/08/17 13:21:21;;;;;;;6.55;3.40;;;;;;;;;;10495495;28;20027;-54
2022/08/17 13:26:39;;;;;;;4.90;3.17;;;;;;;;;;10482282;28;20035;-56
2022/08/17 13:31:42;;;;;;;8.15;3.63;;;;;;;;;;10463412;28;20249;-54
2022/08/17 13:36:44;;;;;;;6.28;3.47;;;;;;;;;;10479537;28;20113;-53
2022/08/17 13:41:46;;;;;;;5.47;3.22;;;;;;;;;;10453657;28;20112;-55
2022/08/17 13:46:50;;;;;;;6.32;3.20;;;;;;;;;;10470514;28;20131;-56
2022/08/17 13:51:51;;;;;;;5.75;3.17;;;;;;;;;;10440289;28;20028;-58
2022/08/17 13:57:15;;;;;;;8.75;3.70;;;;;;;;;;10483447;28;20033;-55
2022/08/17 14:02:19;;;;;;;6.95;3.38;;;;;;;;;;10471808;28;20036;-54
2022/08/17 14:07:34;;;;;;;7.18;3.53;;;;;;;;;;10487991;28;20137;-56
2022/08/17 14:12:39;;;;;;;7.95;3.60;;;;;;;;;;10479590;28;20119;-53
2022/08/17 14:17:39;;;;;;;7.10;3.50;;;;;;;;;;10473988;28;20033;-57
2022/08/17 14:22:48;;;;;;;9.98;4.10;;;;;;;;;;10486259;28;20042;-57
2022/08/17 14:27:49;;;;;;;8.15;3.80;;;;;;;;;;10485904;28;20032;-57
2022/08/17 14:32:51;;;;;;;8.80;4.00;;;;;;;;;;10470223;28;20109;-58
2022/08/17 14:37:51;;;;;;;10.10;3.28;;;;;;;;;;10485594;28;20037;-58
2022/08/17 14:42:54;;;;;;;6.95;3.70;;;;;;;;;;10485832;28;20369;-57
2022/08/17 14:47:55;;;;;;;8.38;3.83;;;;;;;;;;10483072;28;20047;-58
2022/08/17 14:52:56;;;;;;;7.80;3.72;;;;;;;;;;10474273;28;20024;-57
2022/08/17 14:57:56;;;;;;;10.57;3.40;;;;;;;;;;10473822;28;20021;-57
2022/08/17 15:02:59;;;;;;;7.63;3.80;;;;;;;;;;10480144;28;20486;-57
2022/08/17 15:08:01;;;;;;;5.50;3.45;;;;;;;;;;10472854;28;20064;-57
2022/08/17 15:13:03;;;;;;;7.55;3.75;;;;;;;;;;10480499;28;20074;-56
2022/08/17 15:18:04;;;;;;;6.40;3.38;;;;;;;;;;10477699;28;20025;-56
2022/08/17 15:23:05;;;;;;;8.93;3.85;;;;;;;;;;10476485;28;20024;-55
2022/08/17 15:28:06;;;;;;;8.30;3.78;;;;;;;;;;10490137;28;20040;-56
2022/08/17 15:33:10;;;;;;;10.65;3.88;;;;;;;;;;10478040;28;20522;-57
2022/08/17 15:38:11;;;;;;;8.88;3.70;;;;;;;;;;10488094;28;20054;-57
2022/08/17 15:43:16;;;;;;;7.85;3.83;;;;;;;;;;10487524;28;20095;-57
2022/08/17 15:48:17;;;;;;;5.88;3.65;;;;;;;;;;10488710;28;20032;-58
2022/08/17 15:53:17;;;;;;;7.97;3.85;;;;;;;;;;10488057;28;20369;-56
2022/08/17 15:58:18;;;;;;;9.52;3.60;;;;;;;;;;10488822;28;20033;-57
2022/08/17 16:03:19;;;;;;;7.88;3.63;;;;;;;;;;10486126;28;20488;-57
2022/08/17 16:08:19;;;;;;;9.85;4.22;;;;;;;;;;10485653;28;20395;-58
2022/08/17 16:13:22;;;;;;;9.65;4.00;;;;;;;;;;10482460;28;20040;-57
2022/08/17 16:18:30;;;;;;;7.30;4.13;;;;;;;;;;10488996;28;20139;-54
2022/08/17 16:23:31;;;;;;;14.68;4.32;;;;;;;;;;10480041;28;20067;-56
2022/08/17 16:28:32;;;;;;;11.40;4.75;;;;;;;;;;10479679;28;20039;-55
2022/08/17 16:33:32;;;;;;;15.57;5.05;;;;;;;;;;10488426;28;20098;-55
2022/08/17 16:38:34;;;;;;;11.98;5.40;;;;;;;;;;10484066;28;20186;-57
2022/08/17 16:43:35;;;;;;;13.30;5.30;;;;;;;;;;10486941;28;20044;-55
2022/08/17 16:48:35;;;;;;;9.63;4.78;;;;;;;;;;10486338;28;20106;-58
2022/08/17 16:53:36;;;;;;;17.33;5.03;;;;;;;;;;10486823;28;20090;-54
2022/08/17 16:58:38;;;;;;;11.25;4.70;;;;;;;;;;10486485;28;20041;-52
2022/08/17 17:03:42;;;;;;;11.10;5.10;;;;;;;;;;10463443;28;20044;-57
2022/08/17 17:08:54;;;;;;;11.35;4.72;;;;;;;;;;10461394;28;20425;-56
2022/08/17 17:14:00;;;;;;;12.65;4.57;;;;;;;;;;10469742;28;20472;-56
2022/08/17 17:19:13;;;;;;;8.50;4.57;;;;;;;;;;10488202;28;20055;-55
2022/08/17 17:24:50;;;;;;;7.55;4.10;;;;;;;;;;10486129;28;20126;-54
2022/08/17 17:30:11;;;;;;;12.15;4.63;;;;;;;;;;10486136;28;20040;-56
2022/08/17 17:35:33;;;;;;;13.18;4.88;;;;;;;;;;10490272;28;20044;-57
2022/08/17 17:40:48;;;;;;;9.27;4.22;;;;;;;;;;10462391;28;20025;-52
2022/08/17 17:45:59;;;;;;;10.65;4.63;;;;;;;;;;10465490;28;20028;-54
2022/08/17 17:51:00;;;;;;;13.80;4.78;;;;;;;;;;10457912;28;20060;-56
2022/08/17 17:56:22;;;;;;;10.18;4.50;;;;;;;;;;10475041;28;20032;-56
2022/08/17 18:01:34;;;;;;;8.52;4.20;;;;;;;;;;10484357;28;20039;-58
2022/08/17 18:07:23;;;;;;;9.85;4.72;;;;;;;;;;10479280;28;20557;-58
2022/08/17 18:12:33;;;;;;;7.00;4.15;;;;;;;;;;10485561;28;20491;-58
2022/08/17 18:17:35;;;;;;;14.10;4.57;;;;;;;;;;10482002;28;20168;-56
2022/08/17 18:22:35;;;;;;;9.05;4.40;;;;;;;;;;10476812;28;20488;-58
2022/08/17 18:27:47;;;;;;;11.60;4.30;;;;;;;;;;10479615;28;20037;-58
2022/08/17 18:32:48;;;;;;;9.25;4.40;;;;;;;;;;10484523;28;20554;-58
2022/08/17 18:38:18;;;;;;;9.13;3.90;;;;;;;;;;10459543;28;20036;-58
2022/08/17 18:43:29;;;;;;;10.00;4.53;;;;;;;;;;10478773;28;20395;-58
2022/08/17 18:48:49;;;;;;;9.68;3.85;;;;;;;;;;10479645;28;20414;-58
2022/08/17 18:54:14;;;;;;;21.85;5.05;;;;;;;;;;10482409;28;20475;-58
2022/08/17 18:59:23;;;;;;;6.50;4.07;;;;;;;;;;10488820;28;20107;-58
2022/08/17 19:04:36;;;;;;;15.25;4.65;;;;;;;;;;10483540;28;20036;-58
2022/08/17 19:09:44;;;;;;;9.50;4.68;;;;;;;;;;10484350;28;20143;-58
2022/08/17 19:14:44;;;;;;;16.08;4.40;;;;;;;;;;10482974;28;20029;-58
2022/08/17 19:20:00;;;;;;;9.63;4.25;;;;;;;;;;10482818;28;20502;-57
2022/08/17 19:25:15;;;;;;;6.68;3.72;;;;;;;;;;10470831;28;20082;-57
2022/08/17 19:30:16;;;;;;;10.27;3.92;;;;;;;;;;10473543;28;20036;-57
2022/08/17 19:35:19;;;;;;;11.98;4.60;;;;;;;;;;10484005;28;20506;-58
2022/08/17 19:41:15;;;;;;;6.20;3.63;;;;;;;;;;10482607;28;20033;-57
2022/08/17 19:46:46;;;;;;;8.52;3.65;;;;;;;;;;10313762;28;20038;-58
2022/08/17 19:52:03;;;;;;;9.00;3.53;;;;;;;;;;10318469;28;20049;-58
2022/08/17 19:57:26;;;;;;;6.78;3.60;;;;;;;;;;10308466;28;20040;-55
2022/08/17 20:02:44;;;;;;;9.55;3.90;;;;;;;;;;10319197;28;20030;-48
2022/08/17 20:08:01;;;;;;;16.95;4.80;;;;;;;;;;10312591;28;20062;-48
2022/08/17 20:13:11;;;;;;;7.78;3.63;;;;;;;;;;10300766;28;20064;-48
2022/08/17 20:18:24;;;;;;;9.38;3.25;;;;;;;;;;10362194;28;20033;-49
2022/08/17 20:23:40;;;;;;;9.70;3.58;;;;;;;;;;10441291;28;20044;-50
2022/08/17 20:29:13;;;;;;;7.68;3.30;;;;;;;;;;10445488;28;20029;-49
2022/08/17 20:34:25;;;;;;;9.82;3.22;;;;;;;;;;10449336;28;20024;-49
2022/08/17 20:39:38;;;;;;;6.75;2.88;;;;;;;;;;10449179;28;20112;-49
2022/08/17 20:44:41;;;;;;;4.90;2.60;;;;;;;;;;10440546;28;20458;-49
2022/08/17 20:49:43;;;;;;;5.63;3.00;;;;;;;;;;10409500;28;20033;-48
2022/08/17 20:54:49;;;;;;;5.90;2.78;;;;;;;;;;10450483;28;20029;-48
2022/08/17 20:59:51;;;;;;;6.50;2.88;;;;;;;;;;10449868;28;20156;-48
2022/08/17 21:04:55;;;;;;;5.07;2.88;;;;;;;;;;10475059;28;20052;-48
2022/08/17 21:10:12;;;;;;;8.07;2.40;;;;;;;;;;10476438;28;20037;-53
2022/08/17 21:16:08;;;;;;;24.05;3.00;;;;;;;;;;10491856;28;20032;-48
2022/08/17 21:21:27;;;;;;;17.25;3.08;;;;;;;;;;10489414;28;20490;-49
2022/08/17 21:26:59;;;;;;;6.55;2.75;;;;;;;;;;10494072;28;20123;-48
2022/08/17 21:32:02;;;;;;;5.88;2.60;;;;;;;;;;10465469;28;20036;-48
2022/08/17 21:37:21;;;;;;;7.70;2.80;;;;;;;;;;10474058;28;20036;-49
2022/08/17 21:42:30;;;;;;;7.30;2.75;;;;;;;;;;10472003;28;20461;-48
2022/08/17 21:47:31;;;;;;;7.90;2.58;;;;;;;;;;10459571;28;20036;-48
2022/08/17 21:52:32;;;;;;;7.30;2.67;;;;;;;;;;10470174;28;20392;-49
2022/08/17 21:57:39;;;;;;;4.13;2.50;;;;;;;;;;10488541;28;20447;-47
2022/08/17 22:02:40;;;;;;;9.32;2.15;;;;;;;;;;10456813;28;20033;-48
2022/08/17 22:07:46;;;;;;;3.90;2.30;;;;;;;;;;10483360;28;20049;-47
2022/08/17 22:13:05;;;;;;;7.85;2.33;;;;;;;;;;10468532;28;20040;-49
2022/08/17 22:18:18;;;;;;;7.07;2.30;;;;;;;;;;10478798;28;20020;-48
2022/08/17 22:28:57;;;;;;;5.20;2.83;;;;;;;;;;10480532;28;20044;-47
2022/08/17 22:34:00;;;;;;;3.63;1.88;;;;;;;;;;10470388;28;20024;-46
2022/08/17 22:39:09;;;;;;;14.55;2.70;;;;;;;;;;10473914;28;20388;-53
2022/08/17 22:44:22;;;;;;;6.68;2.17;;;;;;;;;;10470139;28;20041;-48
2022/08/17 22:49:48;;;;;;;9.07;2.30;;;;;;;;;;10478923;28;20486;-48
2022/08/17 23:00:42;;;;;;;3.15;2.20;;;;;;;;;;10483718;28;20387;-47
2022/08/17 23:06:09;;;;;;;12.05;2.03;;;;;;;;;;10488220;28;20450;-48
2022/08/17 23:11:10;;;;;;;5.15;1.83;;;;;;;;;;10469401;28;20032;-49
2022/08/17 23:16:12;;;;;;;3.88;1.98;;;;;;;;;;10490122;28;20442;-48
2022/08/17 23:21:12;;;;;;;21.27;1.98;;;;;;;;;;10490138;28;20496;-48
2022/08/17 23:26:13;;;;;;;6.28;1.80;;;;;;;;;;10489833;28;20028;-47
2022/08/17 23:31:18;;;;;;;3.10;2.20;;;;;;;;;;10460047;28;20025;-48
2022/08/17 23:36:19;;;;;;;4.60;2.10;;;;;;;;;;10470751;28;20029;-47
2022/08/17 23:41:21;;;;;;;4.35;1.98;;;;;;;;;;10475344;28;20036;-47
2022/08/17 23:46:23;;;;;;;5.65;2.20;;;;;;;;;;10454910;28;20078;-48
2022/08/17 23:51:29;;;;;;;7.63;2.05;;;;;;;;;;10490106;28;20035;-48
2022/08/17 23:56:32;;;;;;;3.45;1.65;;;;;;;;;;10473758;28;20037;-47
